Time;durP1;ratioP1;P1;durP2;ratioP2;P2;SDS_P1;SDS_P2;PMS_P1;PMS_P2;Temp;Humidity;BMP_temperature;BMP_pressure;BME280_temperature;BME280_humidity;BME280_pressure;Samples;Min_cycle;Max_cycle;Signal;HPM_P1;HPM_P2
2022/07/18 00:01:25;;;;;;;3.10;2.00;;;;;14.50;97169.00;;;;8282047;28;20988;-76
2022/07/18 00:05:29;;;;;;;3.33;1.73;;;;;14.40;97164.00;;;;8281269;28;20257;-75
2022/07/18 00:09:32;;;;;;;2.15;1.83;;;;;14.30;97164.00;;;;8281333;28;20246;-75
2022/07/18 00:13:39;;;;;;;4.07;1.60;;;;;14.30;97156.00;;;;8286805;28;20239;-75
2022/07/18 00:17:43;;;;;;;1.95;1.77;;;;;14.30;97162.00;;;;8283495;28;20311;-76
2022/07/18 00:21:46;;;;;;;2.83;1.73;;;;;14.20;97157.00;;;;8278501;28;20234;-75
2022/07/18 00:25:50;;;;;;;3.78;2.00;;;;;14.10;97166.00;;;;8274801;28;20227;-78
2022/07/18 00:29:54;;;;;;;3.85;1.80;;;;;14.10;97159.00;;;;8277137;28;20683;-75
2022/07/18 00:33:57;;;;;;;5.20;1.90;;;;;14.00;97165.00;;;;8279407;28;20669;-75
2022/07/18 00:38:01;;;;;;;2.63;1.80;;;;;13.90;97165.00;;;;8290283;28;20318;-73
2022/07/18 00:42:04;;;;;;;3.45;2.17;;;;;14.00;97166.00;;;;8286246;28;20301;-74
2022/07/18 00:46:11;;;;;;;2.53;1.90;;;;;14.00;97165.00;;;;8290731;28;20313;-75
2022/07/18 00:50:14;;;;;;;4.50;2.00;;;;;13.90;97164.00;;;;8279980;28;20734;-76
2022/07/18 00:54:18;;;;;;;5.85;1.80;;;;;13.70;97158.00;;;;8278837;28;20590;-74
2022/07/18 00:58:21;;;;;;;2.58;1.80;;;;;13.60;97153.00;;;;8290042;28;20313;-74
2022/07/18 01:02:27;;;;;;;3.60;1.90;;;;;13.60;97158.00;;;;8284444;28;20245;-74
2022/07/18 01:06:30;;;;;;;2.47;1.92;;;;;13.60;97164.00;;;;8283855;28;20237;-74
2022/07/18 01:10:34;;;;;;;2.85;2.00;;;;;13.60;97166.00;;;;8278177;28;20229;-74
2022/07/18 01:14:38;;;;;;;2.25;1.83;;;;;13.50;97162.00;;;;8278676;28;20229;-74
2022/07/18 01:18:46;;;;;;;3.22;1.80;;;;;13.60;97165.00;;;;8277355;28;20238;-75
2022/07/18 01:22:51;;;;;;;1.60;1.60;;;;;13.60;97165.00;;;;8283262;28;20306;-75
2022/07/18 01:26:54;;;;;;;1.90;1.80;;;;;13.60;97155.00;;;;8273477;28;20238;-74
2022/07/18 01:30:58;;;;;;;4.87;2.47;;;;;13.50;97164.00;;;;8285384;28;20308;-74
2022/07/18 01:35:01;;;;;;;3.57;1.90;;;;;13.40;97162.00;;;;8275659;28;20313;-74
2022/07/18 01:39:06;;;;;;;1.90;1.80;;;;;13.40;97163.00;;;;8282262;28;20313;-76
2022/07/18 01:43:09;;;;;;;4.00;1.70;;;;;13.30;97151.00;;;;8282710;28;20237;-75
2022/07/18 01:47:13;;;;;;;5.32;2.03;;;;;13.20;97152.00;;;;8284386;28;20238;-74
2022/07/18 01:51:16;;;;;;;3.78;2.20;;;;;13.20;97151.00;;;;8286875;28;20229;-75
2022/07/18 01:55:21;;;;;;;2.07;1.87;;;;;13.10;97150.00;;;;8279403;28;20254;-75
2022/07/18 01:59:25;;;;;;;5.00;2.27;;;;;12.90;97151.00;;;;8271548;28;20781;-76
2022/07/18 02:03:28;;;;;;;7.23;1.93;;;;;13.00;97166.00;;;;8268872;28;20242;-76
2022/07/18 02:07:34;;;;;;;3.40;1.80;;;;;12.90;97167.00;;;;8267846;28;20225;-76
2022/07/18 02:11:38;;;;;;;5.68;2.17;;;;;12.80;97167.00;;;;8256938;28;20230;-75
2022/07/18 02:15:41;;;;;;;2.78;1.95;;;;;12.80;97174.00;;;;8279186;28;20235;-76
2022/07/18 02:19:45;;;;;;;2.37;1.73;;;;;12.80;97169.00;;;;8288632;28;20321;-78
2022/07/18 02:23:50;;;;;;;2.03;1.80;;;;;12.80;97170.00;;;;8277242;28;20230;-77
2022/07/18 02:27:55;;;;;;;2.63;2.08;;;;;12.80;97172.00;;;;8277915;28;20232;-76
2022/07/18 02:31:58;;;;;;;2.33;1.73;;;;;12.60;97169.00;;;;8280440;28;20586;-76
2022/07/18 02:36:01;;;;;;;3.90;1.90;;;;;12.60;97176.00;;;;8280015;28;20226;-77
2022/07/18 02:40:07;;;;;;;3.13;2.13;;;;;12.60;97173.00;;;;8282052;28;20221;-75
2022/07/18 02:44:12;;;;;;;3.70;1.90;;;;;12.50;97163.00;;;;8282583;28;20234;-76
2022/07/18 02:48:15;;;;;;;2.08;1.98;;;;;12.60;97166.00;;;;8282102;28;20980;-75
2022/07/18 02:52:19;;;;;;;2.30;1.90;;;;;12.60;97165.00;;;;8280945;28;20721;-75
2022/07/18 02:56:22;;;;;;;2.30;1.97;;;;;12.60;97164.00;;;;8277995;28;20279;-77
2022/07/18 03:00:27;;;;;;;2.00;1.75;;;;;12.50;97169.00;;;;8278828;28;20230;-79
2022/07/18 03:04:31;;;;;;;5.40;2.63;;;;;12.50;97172.00;;;;8311916;22;20314;-76
2022/07/18 03:08:34;;;;;;;2.10;1.90;;;;;12.50;97173.00;;;;8277864;28;20236;-75
2022/07/18 03:12:37;;;;;;;1.97;1.87;;;;;12.50;97176.00;;;;8278693;28;20226;-75
2022/07/18 03:16:42;;;;;;;2.00;1.85;;;;;12.50;97175.00;;;;8281062;28;20247;-78
2022/07/18 03:20:45;;;;;;;2.90;2.00;;;;;12.50;97182.00;;;;8277572;28;20218;-76
2022/07/18 03:24:48;;;;;;;2.00;1.80;;;;;12.50;97184.00;;;;8281657;28;20218;-75
2022/07/18 03:28:51;;;;;;;5.00;2.40;;;;;12.40;97185.00;;;;8280927;28;20237;-74
2022/07/18 03:32:56;;;;;;;4.27;2.20;;;;;12.30;97177.00;;;;8276808;28;20675;-73
2022/07/18 03:36:59;;;;;;;1.90;1.80;;;;;12.40;97180.00;;;;8279300;28;20245;-73
2022/07/18 03:41:03;;;;;;;3.47;2.23;;;;;12.40;97186.00;;;;8265561;28;20493;-73
2022/07/18 03:45:08;;;;;;;1.90;1.80;;;;;12.40;97189.00;;;;8274032;28;20232;-74
2022/07/18 03:49:13;;;;;;;4.27;2.07;;;;;12.40;97186.00;;;;8288062;28;20724;-75
2022/07/18 03:53:16;;;;;;;3.60;1.80;;;;;12.40;97190.00;;;;8280006;28;20234;-78
2022/07/18 03:57:20;;;;;;;2.13;1.83;;;;;12.40;97197.00;;;;8271718;28;20316;-75
2022/07/18 04:01:23;;;;;;;2.07;1.87;;;;;12.40;97192.00;;;;8283881;28;20222;-76
2022/07/18 04:05:28;;;;;;;4.33;2.00;;;;;12.40;97185.00;;;;8268332;28;20325;-74
2022/07/18 04:09:31;;;;;;;3.63;2.10;;;;;12.50;97184.00;;;;8266179;28;20256;-73
2022/07/18 04:13:35;;;;;;;2.17;1.90;;;;;12.60;97185.00;;;;8285518;28;20226;-74
2022/07/18 04:17:38;;;;;;;3.80;1.80;;;;;12.80;97186.00;;;;8280503;28;20280;-73
2022/07/18 04:21:43;;;;;;;2.23;2.03;;;;;13.10;97182.00;;;;8279182;28;20571;-73
2022/07/18 04:25:46;;;;;;;2.63;2.20;;;;;13.30;97183.00;;;;8265988;28;20234;-73
2022/07/18 04:29:50;;;;;;;2.70;2.17;;;;;13.50;97185.00;;;;8280287;28;20257;-75
2022/07/18 04:33:53;;;;;;;3.57;2.23;;;;;13.80;97186.00;;;;8269375;28;20233;-74
2022/07/18 04:37:58;;;;;;;2.70;2.00;;;;;14.20;97185.00;;;;8276408;28;20325;-73
2022/07/18 04:42:01;;;;;;;3.57;2.10;;;;;14.60;97182.00;;;;8270769;28;20305;-72
2022/07/18 04:46:05;;;;;;;2.10;2.00;;;;;15.00;97189.00;;;;8277273;28;20249;-73
2022/07/18 04:50:09;;;;;;;2.53;2.07;;;;;15.30;97195.00;;;;8275977;28;20713;-72
2022/07/18 04:54:14;;;;;;;2.30;2.10;;;;;15.70;97190.00;;;;8273321;28;20304;-72
2022/07/18 04:58:17;;;;;;;2.22;2.03;;;;;16.10;97189.00;;;;8279540;28;20794;-72
2022/07/18 05:02:21;;;;;;;1.75;1.65;;;;;16.60;97184.00;;;;8277602;28;20322;-72
2022/07/18 05:06:24;;;;;;;4.03;2.05;;;;;16.90;97185.00;;;;8271548;28;20238;-74
2022/07/18 05:10:28;;;;;;;2.78;1.83;;;;;17.30;97190.00;;;;8272468;28;20274;-74
2022/07/18 05:14:32;;;;;;;3.80;1.90;;;;;17.80;97193.00;;;;8273134;28;20232;-73
2022/07/18 05:18:41;;;;;;;2.05;1.95;;;;;18.20;97191.00;;;;8276295;28;20227;-73
2022/07/18 05:22:45;;;;;;;2.72;2.30;;;;;18.50;97192.00;;;;8280906;28;20224;-74
2022/07/18 05:26:50;;;;;;;5.63;1.80;;;;;18.80;97189.00;;;;8280164;28;20233;-74
2022/07/18 05:30:54;;;;;;;1.90;1.70;;;;;19.00;97181.00;;;;8279650;28;21014;-74
2022/07/18 05:34:57;;;;;;;4.32;1.85;;;;;19.20;97192.00;;;;8276743;28;20241;-74
2022/07/18 05:39:01;;;;;;;2.20;2.00;;;;;19.50;97191.00;;;;8277786;28;20251;-73
2022/07/18 05:43:06;;;;;;;2.25;1.83;;;;;19.70;97192.00;;;;8278084;28;20313;-74
2022/07/18 05:47:09;;;;;;;2.20;1.48;;;;;19.70;97193.00;;;;8278372;28;20718;-74
2022/07/18 05:51:12;;;;;;;2.70;2.00;;;;;19.80;97190.00;;;;8275339;28;20301;-73
2022/07/18 05:55:16;;;;;;;2.22;1.70;;;;;19.90;97192.00;;;;8261997;28;20237;-74
2022/07/18 05:59:21;;;;;;;2.13;1.77;;;;;20.30;97192.00;;;;8273107;28;20222;-76
2022/07/18 06:03:24;;;;;;;3.40;2.15;;;;;20.70;97190.00;;;;8264195;28;20306;-71
2022/07/18 06:07:28;;;;;;;3.75;1.75;;;;;21.30;97195.00;;;;8267113;28;20276;-72
2022/07/18 06:11:32;;;;;;;3.17;1.95;;;;;22.00;97195.00;;;;8269592;28;20317;-71
2022/07/18 06:15:37;;;;;;;2.85;2.10;;;;;22.70;97197.00;;;;8282131;28;20384;-71
2022/07/18 06:19:41;;;;;;;3.63;2.05;;;;;23.50;97201.00;;;;8274257;28;20222;-71
2022/07/18 06:23:44;;;;;;;2.13;1.90;;;;;24.20;97202.00;;;;8273046;28;20822;-72
2022/07/18 06:27:48;;;;;;;1.90;1.80;;;;;24.50;97212.00;;;;8274755;28;20233;-70
2022/07/18 06:31:53;;;;;;;2.00;1.80;;;;;24.70;97209.00;;;;8277375;28;20285;-71
2022/07/18 06:35:57;;;;;;;5.28;2.47;;;;;25.00;97209.00;;;;8279232;28;20315;-70
2022/07/18 06:40:00;;;;;;;2.15;1.90;;;;;25.80;97213.00;;;;8274751;28;20568;-71
2022/07/18 06:44:06;;;;;;;5.30;2.40;;;;;26.50;97213.00;;;;8277306;28;20237;-70
2022/07/18 06:48:11;;;;;;;2.58;1.77;;;;;26.80;97207.00;;;;8276765;28;20686;-72
2022/07/18 06:52:15;;;;;;;4.35;2.13;;;;;27.30;97207.00;;;;8280459;28;20237;-70
2022/07/18 06:56:19;;;;;;;2.88;2.00;;;;;27.70;97211.00;;;;8271566;28;20234;-71
2022/07/18 07:00:22;;;;;;;2.63;1.92;;;;;27.90;97213.00;;;;8273631;28;20927;-72
2022/07/18 07:04:27;;;;;;;3.78;1.73;;;;;28.40;97214.00;;;;8277304;28;20269;-73
2022/07/18 07:08:30;;;;;;;7.18;1.92;;;;;28.90;97214.00;;;;8271543;28;20313;-71
2022/07/18 07:12:39;;;;;;;3.13;1.80;;;;;29.20;97210.00;;;;8275770;28;20232;-71
2022/07/18 07:16:42;;;;;;;4.93;1.98;;;;;29.40;97213.00;;;;8280252;28;20305;-72
2022/07/18 07:20:48;;;;;;;4.13;1.75;;;;;30.00;97215.00;;;;8278126;28;20308;-72
2022/07/18 07:24:51;;;;;;;2.10;1.90;;;;;30.40;97209.00;;;;8275133;28;20229;-71
2022/07/18 07:28:54;;;;;;;1.98;1.85;;;;;30.60;97215.00;;;;8277222;28;20612;-72
2022/07/18 07:32:57;;;;;;;3.47;2.00;;;;;30.80;97212.00;;;;8269321;28;20948;-73
2022/07/18 07:37:02;;;;;;;2.15;1.95;;;;;31.00;97209.00;;;;8275620;28;20229;-74
2022/07/18 07:41:06;;;;;;;7.30;2.10;;;;;31.30;97216.00;;;;8266955;28;20325;-69
2022/07/18 07:45:11;;;;;;;3.08;2.20;;;;;31.70;97216.00;;;;8271115;28;20226;-70
2022/07/18 07:49:14;;;;;;;6.53;2.00;;;;;31.80;97218.00;;;;8266263;28;20230;-70
2022/07/18 07:53:19;;;;;;;5.28;1.98;;;;;32.00;97215.00;;;;8265213;28;20338;-70
2022/07/18 07:57:22;;;;;;;7.18;2.47;;;;;31.80;97215.00;;;;8279002;28;20333;-70
2022/07/18 08:17:33;;;;;;;4.15;2.17;;;;;33.40;97216.00;;;;8343087;27;22290;-70
2022/07/18 08:21:37;;;;;;;9.63;2.47;;;;;34.10;97207.00;;;;8300796;28;20272;-70
2022/07/18 08:25:43;;;;;;;3.75;2.03;;;;;34.40;97213.00;;;;8318232;28;20235;-69
2022/07/18 08:29:47;;;;;;;3.20;1.90;;;;;34.60;97208.00;;;;8325036;28;20244;-70
2022/07/18 08:34:16;;;;;;;2.67;2.00;;;;;34.70;97204.00;;;;8303943;28;20850;-69
2022/07/18 08:38:19;;;;;;;7.90;2.15;;;;;34.70;97203.00;;;;8309201;28;20323;-69
2022/07/18 08:42:26;;;;;;;3.13;1.83;;;;;35.00;97207.00;;;;8308349;28;20225;-69
2022/07/18 08:46:30;;;;;;;3.65;1.80;;;;;35.40;97198.00;;;;8311546;28;20229;-70
2022/07/18 08:50:35;;;;;;;2.97;1.60;;;;;35.80;97205.00;;;;8305652;28;20222;-70
2022/07/18 08:54:39;;;;;;;2.00;1.80;;;;;35.90;97201.00;;;;8308398;28;20742;-70
2022/07/18 08:58:45;;;;;;;1.85;1.67;;;;;36.00;97198.00;;;;8315906;28;20316;-69
2022/07/18 09:02:58;;;;;;;2.28;1.70;;;;;36.30;97197.00;;;;8295036;28;20233;-70
2022/07/18 09:07:04;;;;;;;4.13;1.83;;;;;36.50;97197.00;;;;8293592;28;20253;-70
2022/07/18 09:11:11;;;;;;;1.98;1.85;;;;;36.40;97201.00;;;;8297117;28;20312;-71
2022/07/18 09:15:34;;;;;;;2.03;1.90;;;;;36.30;97198.00;;;;8292291;28;20937;-71
2022/07/18 09:19:39;;;;;;;1.90;1.60;;;;;36.30;97197.00;;;;8276981;28;20229;-70
2022/07/18 09:23:48;;;;;;;1.77;1.67;;;;;36.50;97202.00;;;;8283918;28;20814;-70
2022/07/18 09:27:53;;;;;;;2.58;1.75;;;;;37.00;97197.00;;;;8277292;28;20218;-71
2022/07/18 09:31:57;;;;;;;1.70;1.60;;;;;37.60;97194.00;;;;8279984;28;20227;-71
2022/07/18 09:36:00;;;;;;;4.57;1.80;;;;;38.00;97191.00;;;;8280321;28;20242;-71
2022/07/18 09:40:21;;;;;;;2.70;1.70;;;;;38.10;97186.00;;;;8280367;28;20980;-70
2022/07/18 09:44:24;;;;;;;3.95;2.00;;;;;38.40;97183.00;;;;8278720;28;20999;-70
2022/07/18 09:48:28;;;;;;;2.05;1.88;;;;;38.40;97193.00;;;;8277248;28;20225;-71
2022/07/18 09:52:31;;;;;;;1.63;1.60;;;;;38.50;97190.00;;;;8276987;28;20699;-70
2022/07/18 09:56:39;;;;;;;1.80;1.70;;;;;38.80;97183.00;;;;8279957;28;20232;-70
2022/07/18 10:00:42;;;;;;;3.05;1.65;;;;;38.70;97190.00;;;;8277110;28;20279;-70
2022/07/18 10:04:46;;;;;;;3.47;1.83;;;;;38.90;97184.00;;;;8273062;28;20238;-70
2022/07/18 10:08:50;;;;;;;2.00;1.80;;;;;39.40;97187.00;;;;8274003;28;20313;-70
2022/07/18 10:12:57;;;;;;;1.90;1.80;;;;;39.50;97188.00;;;;8277673;28;20639;-71
2022/07/18 10:17:01;;;;;;;2.08;1.83;;;;;39.60;97187.00;;;;8273428;28;20450;-70
2022/07/18 10:21:09;;;;;;;2.28;2.05;;;;;39.30;97191.00;;;;8276061;28;20309;-70
2022/07/18 10:25:14;;;;;;;5.35;1.85;;;;;38.70;97183.00;;;;8274081;28;20313;-71
2022/07/18 10:29:19;;;;;;;1.70;1.60;;;;;39.20;97174.00;;;;8267888;28;20710;-70
2022/07/18 10:33:41;;;;;;;4.05;1.80;;;;;38.80;97168.00;;;;8274019;28;20276;-70
2022/07/18 10:37:59;;;;;;;1.92;1.77;;;;;38.60;97182.00;;;;8266676;28;20318;-70
2022/07/18 10:42:24;;;;;;;2.08;1.98;;;;;38.50;97176.00;;;;8277075;28;20233;-70
2022/07/18 10:47:17;;;;;;;1.80;1.70;;;;;38.70;97170.00;;;;8272619;28;20237;-70
2022/07/18 10:51:28;;;;;;;1.75;1.65;;;;;38.90;97164.00;;;;8230237;28;20280;-70
2022/07/18 10:55:33;;;;;;;2.40;1.70;;;;;39.00;97160.00;;;;8268635;28;20237;-73
2022/07/18 10:59:37;;;;;;;1.67;1.58;;;;;39.70;97158.00;;;;8277544;28;20332;-71
2022/07/18 11:03:42;;;;;;;1.90;1.50;;;;;40.10;97153.00;;;;8274340;28;20333;-71
2022/07/18 11:08:20;;;;;;;1.88;1.75;;;;;39.80;97157.00;;;;8274548;28;20247;-72
2022/07/18 11:12:28;;;;;;;2.05;1.95;;;;;39.40;97141.00;;;;8262677;28;20221;-72
2022/07/18 11:16:34;;;;;;;2.75;1.52;;;;;38.90;97144.00;;;;8278126;28;20317;-72
2022/07/18 11:20:42;;;;;;;2.70;1.70;;;;;38.90;97147.00;;;;8273052;28;20232;-74
2022/07/18 11:24:46;;;;;;;1.75;1.65;;;;;39.00;97148.00;;;;8278270;28;20692;-73
2022/07/18 11:29:03;;;;;;;1.75;1.65;;;;;39.40;97144.00;;;;8256823;28;20301;-74
2022/07/18 11:33:20;;;;;;;1.70;1.60;;;;;40.00;97142.00;;;;8241181;28;20881;-75
2022/07/18 11:37:25;;;;;;;1.50;1.50;;;;;40.70;97148.00;;;;8237435;28;20246;-74
2022/07/18 11:41:29;;;;;;;1.63;1.42;;;;;41.00;97140.00;;;;8258929;28;20237;-74
2022/07/18 11:45:32;;;;;;;2.35;1.63;;;;;41.30;97136.00;;;;8269264;28;20253;-72
2022/07/18 11:49:37;;;;;;;2.17;1.70;;;;;41.70;97132.00;;;;8265280;28;20236;-79
2022/07/18 11:53:45;;;;;;;1.73;1.63;;;;;41.10;97119.00;;;;8274152;28;20702;-78
2022/07/18 11:57:48;;;;;;;5.88;1.80;;;;;40.20;97124.00;;;;8276306;28;20698;-78
2022/07/18 12:07:26;;;;;;;1.65;1.55;;;;;40.30;97126.00;;;;8294366;28;20221;-77
2022/07/18 12:12:02;;;;;;;1.40;1.40;;;;;40.70;97113.00;;;;8292184;28;20707;-76
2022/07/18 12:16:44;;;;;;;1.88;1.77;;;;;40.10;97104.00;;;;8292465;28;20710;-76
2022/07/18 12:21:14;;;;;;;1.60;1.50;;;;;39.50;97111.00;;;;8292247;28;20655;-78
2022/07/18 12:25:51;;;;;;;4.93;1.70;;;;;39.70;97103.00;;;;8260720;28;20317;-74
2022/07/18 12:30:28;;;;;;;2.20;1.70;;;;;40.40;97101.00;;;;8261559;28;20218;-73
2022/07/18 12:35:07;;;;;;;2.45;1.58;;;;;40.50;97105.00;;;;8261870;28;20214;-73
2022/07/18 12:39:41;;;;;;;3.72;1.52;;;;;40.30;97095.00;;;;8260839;28;20214;-73
2022/07/18 12:44:17;;;;;;;1.55;1.55;;;;;39.80;97091.00;;;;8261002;28;20301;-73
2022/07/18 12:48:51;;;;;;;1.65;1.55;;;;;39.00;97089.00;;;;8261651;28;20735;-73
2022/07/18 12:53:05;;;;;;;1.70;1.60;;;;;38.50;97094.00;;;;8296629;28;20224;-73
2022/07/18 12:57:42;;;;;;;4.80;1.83;;;;;38.10;97089.00;;;;8296621;28;20283;-78
2022/07/18 13:02:18;;;;;;;1.65;1.55;;;;;38.00;97083.00;;;;8266321;28;20222;-78
2022/07/18 13:06:56;;;;;;;2.28;1.73;;;;;38.00;97083.00;;;;8266151;28;20318;-79
2022/07/18 13:11:34;;;;;;;2.85;1.50;;;;;37.80;97087.00;;;;8299163;28;20305;-81
2022/07/18 13:16:09;;;;;;;2.03;1.92;;;;;37.80;97081.00;;;;8265655;28;20221;-80
2022/07/18 13:20:46;;;;;;;2.22;1.52;;;;;37.80;97079.00;;;;8295709;28;20256;-80
2022/07/18 13:25:23;;;;;;;1.80;1.70;;;;;38.00;97078.00;;;;8298145;28;20302;-79
2022/07/18 13:30:02;;;;;;;3.42;1.45;;;;;37.40;97074.00;;;;8298192;28;20578;-79
2022/07/18 13:34:36;;;;;;;2.42;1.50;;;;;37.30;97069.00;;;;8297644;28;20221;-82
2022/07/18 13:39:13;;;;;;;5.22;1.60;;;;;37.20;97069.00;;;;8297446;28;20260;-81
2022/07/18 13:43:50;;;;;;;1.48;1.40;;;;;37.60;97058.00;;;;8294746;28;20292;-83
2022/07/18 13:48:28;;;;;;;4.00;1.58;;;;;38.60;97056.00;;;;8295962;28;20226;-83
2022/07/18 13:53:05;;;;;;;1.90;1.73;;;;;38.90;97047.00;;;;8297000;28;20237;-73
2022/07/18 13:57:42;;;;;;;1.92;1.73;;;;;38.90;97047.00;;;;8295834;28;20217;-73
2022/07/18 14:02:20;;;;;;;3.42;1.70;;;;;39.30;97049.00;;;;8285172;28;20365;-76
2022/07/18 14:06:59;;;;;;;2.13;1.80;;;;;40.10;97045.00;;;;8297675;28;20309;-75
2022/07/18 14:11:33;;;;;;;5.28;1.90;;;;;40.60;97041.00;;;;8303388;28;20224;-75
2022/07/18 14:16:10;;;;;;;1.55;1.50;;;;;40.80;97038.00;;;;8325991;28;20225;-74
2022/07/18 14:25:38;;;;;;;4.20;1.60;;;;;40.20;97026.00;;;;8329448;28;20223;-74
2022/07/18 14:30:13;;;;;;;1.60;1.50;;;;;40.00;97029.00;;;;8328153;28;20596;-73
2022/07/18 14:34:47;;;;;;;1.83;1.70;;;;;40.00;97021.00;;;;8329143;28;20708;-74
2022/07/18 14:39:24;;;;;;;2.45;1.60;;;;;40.00;97017.00;;;;8328441;28;20594;-72
2022/07/18 14:44:03;;;;;;;1.70;1.60;;;;;40.10;97023.00;;;;8328585;28;20311;-71
2022/07/18 14:48:37;;;;;;;1.60;1.50;;;;;40.00;97016.00;;;;8329148;28;20316;-70
2022/07/18 14:53:14;;;;;;;3.65;1.67;;;;;40.00;97021.00;;;;8327610;28;20296;-71
2022/07/18 14:57:51;;;;;;;2.70;2.08;;;;;39.90;97018.00;;;;8326706;28;20570;-70
2022/07/18 15:02:27;;;;;;;1.90;1.80;;;;;40.10;97015.00;;;;8327899;28;20252;-71
2022/07/18 15:06:39;;;;;;;4.80;2.10;;;;;39.80;97012.00;;;;8328865;28;20311;-71
2022/07/18 15:11:18;;;;;;;11.25;2.13;;;;;39.70;97005.00;;;;8327977;28;20300;-71
2022/07/18 15:15:52;;;;;;;2.28;1.98;;;;;39.60;97008.00;;;;8327130;28;20260;-71
2022/07/18 15:19:57;;;;;;;2.80;1.70;;;;;39.80;97005.00;;;;8328010;28;20221;-71
2022/07/18 15:24:00;;;;;;;2.10;1.58;;;;;39.60;97007.00;;;;8327509;28;20218;-70
2022/07/18 15:28:35;;;;;;;1.98;1.88;;;;;39.60;97003.00;;;;8328108;28;20264;-70
2022/07/18 15:33:11;;;;;;;2.03;1.60;;;;;39.30;97000.00;;;;8327388;28;20220;-70
2022/07/18 15:37:50;;;;;;;1.95;1.80;;;;;38.50;96996.00;;;;8327467;28;20245;-71
2022/07/18 15:42:23;;;;;;;2.42;2.00;;;;;38.00;96991.00;;;;8327134;28;20543;-70
2022/07/18 15:47:00;;;;;;;2.25;1.73;;;;;38.20;96986.00;;;;8327629;28;20754;-69
2022/07/18 15:51:38;;;;;;;5.05;1.65;;;;;38.50;96982.00;;;;8327775;28;20244;-70
2022/07/18 15:56:16;;;;;;;6.38;1.77;;;;;38.60;96981.00;;;;8327889;28;20244;-71
2022/07/18 16:00:50;;;;;;;4.90;1.98;;;;;38.50;96980.00;;;;8326779;28;20296;-70
2022/07/18 16:05:27;;;;;;;6.43;2.00;;;;;38.30;96975.00;;;;8326998;28;20536;-70
2022/07/18 16:10:04;;;;;;;3.90;2.00;;;;;37.50;96970.00;;;;8326623;28;20723;-70
2022/07/18 16:14:43;;;;;;;1.83;1.73;;;;;36.60;96964.00;;;;8327144;28;20292;-70
2022/07/18 16:19:15;;;;;;;4.05;2.03;;;;;36.20;96962.00;;;;8325471;28;20630;-71
2022/07/18 16:23:52;;;;;;;1.98;1.88;;;;;36.00;96954.00;;;;8326823;28;20284;-70
2022/07/18 16:28:12;;;;;;;4.03;1.70;;;;;35.80;96952.00;;;;8331199;28;20737;-70
2022/07/18 16:32:47;;;;;;;4.05;1.88;;;;;36.30;96950.00;;;;8333902;28;20236;-70
2022/07/18 16:37:21;;;;;;;2.10;2.00;;;;;36.70;96953.00;;;;8332897;28;20292;-70
2022/07/18 16:41:58;;;;;;;2.42;1.65;;;;;36.90;96952.00;;;;8333020;28;20312;-71
2022/07/18 16:46:36;;;;;;;3.28;1.95;;;;;36.70;96948.00;;;;8333346;28;20259;-70
2022/07/18 16:51:13;;;;;;;3.22;2.05;;;;;36.40;96943.00;;;;8332786;28;20219;-65
2022/07/18 16:55:50;;;;;;;2.40;2.20;;;;;36.50;96948.00;;;;8332856;28;20601;-67
2022/07/18 17:00:27;;;;;;;6.05;3.35;;;;;36.40;96943.00;;;;8332522;28;20296;-66
2022/07/18 17:04:44;;;;;;;4.50;2.00;;;;;36.10;96934.00;;;;8332924;28;20237;-66
2022/07/18 17:09:21;;;;;;;9.75;5.18;;;;;35.70;96941.00;;;;8333025;28;20647;-66
2022/07/18 17:13:58;;;;;;;4.57;2.40;;;;;35.70;96940.00;;;;8333043;28;20647;-67
2022/07/18 17:18:35;;;;;;;2.15;1.95;;;;;35.90;96943.00;;;;8331977;28;20232;-69
2022/07/18 17:28:25;;;;;;;2.20;2.08;;;;;35.90;96942.00;;;;8332431;28;20259;-70
2022/07/18 17:33:03;;;;;;;3.42;1.70;;;;;35.70;96945.00;;;;8332392;28;20304;-70
2022/07/18 17:37:41;;;;;;;3.38;1.67;;;;;35.60;96941.00;;;;8331296;28;20237;-70
2022/07/18 17:42:19;;;;;;;2.50;1.80;;;;;35.70;96939.00;;;;8331374;28;20220;-70
2022/07/18 17:46:53;;;;;;;1.90;1.52;;;;;36.10;96934.00;;;;8330942;28;20229;-70
2022/07/18 17:51:16;;;;;;;4.45;3.38;;;;;35.80;96936.00;;;;8332097;28;20283;-69
2022/07/18 17:55:50;;;;;;;16.20;4.65;;;;;35.90;96948.00;;;;8331186;28;20308;-69
2022/07/18 18:00:27;;;;;;;2.70;2.10;;;;;35.60;96951.00;;;;8331422;28;20222;-69
2022/07/18 18:04:30;;;;;;;4.40;2.10;;;;;35.10;96950.00;;;;8331290;28;20237;-69
2022/07/18 18:09:09;;;;;;;8.88;3.15;;;;;34.50;96951.00;;;;8331315;28;20232;-69
2022/07/18 18:13:42;;;;;;;12.45;2.80;;;;;33.80;96951.00;;;;8330850;28;20306;-70
2022/07/18 18:18:20;;;;;;;7.55;2.47;;;;;33.10;96959.00;;;;8328271;28;20283;-71
2022/07/18 18:27:41;;;;;;;3.95;2.10;;;;;31.50;96948.00;;;;8328826;28;20240;-71
2022/07/18 18:32:15;;;;;;;3.80;2.47;;;;;30.90;96951.00;;;;8329712;28;20292;-71
2022/07/18 18:36:57;;;;;;;5.45;2.17;;;;;30.40;96952.00;;;;8330079;28;20221;-77
2022/07/18 18:41:28;;;;;;;2.63;2.42;;;;;30.10;96957.00;;;;8329868;28;20658;-75
2022/07/18 18:46:05;;;;;;;3.35;2.25;;;;;29.90;96954.00;;;;8329693;28;20698;-75
2022/07/18 18:50:39;;;;;;;2.40;2.20;;;;;29.70;96961.00;;;;8326814;28;20223;-75
2022/07/18 18:55:16;;;;;;;5.82;1.90;;;;;29.50;96953.00;;;;8329962;28;20297;-75
2022/07/18 18:59:53;;;;;;;6.32;2.10;;;;;29.30;96959.00;;;;8329235;28;20292;-75
2022/07/18 19:04:32;;;;;;;3.65;2.15;;;;;29.00;96956.00;;;;8329315;28;20606;-75
2022/07/18 19:09:09;;;;;;;5.82;2.20;;;;;28.70;96962.00;;;;8328574;28;20256;-74
2022/07/18 19:13:44;;;;;;;5.10;2.15;;;;;28.40;96960.00;;;;8328918;28;20643;-74
2022/07/18 19:18:21;;;;;;;2.95;2.10;;;;;28.10;96958.00;;;;8328370;28;20229;-74
2022/07/18 19:27:41;;;;;;;2.83;2.03;;;;;27.60;96964.00;;;;8328337;28;20238;-74
2022/07/18 19:32:18;;;;;;;19.77;2.88;;;;;27.40;96968.00;;;;8328838;28;20669;-76
2022/07/18 19:36:52;;;;;;;12.30;2.67;;;;;27.00;96973.00;;;;8327454;28;20609;-72
2022/07/18 19:41:29;;;;;;;3.42;2.17;;;;;26.60;96975.00;;;;8325284;28;20312;-72
2022/07/18 19:46:07;;;;;;;8.43;2.03;;;;;26.10;96977.00;;;;8327809;28;20300;-71
2022/07/18 19:50:41;;;;;;;3.28;1.90;;;;;25.60;96969.00;;;;8328072;28;20287;-72
2022/07/18 19:55:18;;;;;;;7.43;2.10;;;;;25.20;96973.00;;;;8327209;28;20215;-71
2022/07/18 19:59:55;;;;;;;2.00;1.90;;;;;24.80;96977.00;;;;8326752;28;20304;-71
2022/07/18 20:04:33;;;;;;;2.25;2.05;;;;;24.50;96982.00;;;;8327957;28;20614;-72
2022/07/18 20:09:08;;;;;;;7.00;2.17;;;;;24.30;96976.00;;;;8326678;28;20243;-72
2022/07/18 20:13:44;;;;;;;3.75;2.40;;;;;24.00;96978.00;;;;8324642;28;20236;-70
2022/07/18 20:18:19;;;;;;;7.50;2.40;;;;;23.80;96972.00;;;;8327396;28;20682;-71
2022/07/18 20:22:56;;;;;;;4.93;2.08;;;;;23.60;96971.00;;;;8326416;28;20228;-72
2022/07/18 20:27:35;;;;;;;2.38;1.90;;;;;23.30;96974.00;;;;8326679;28;20245;-70
2022/07/18 20:32:09;;;;;;;4.45;1.98;;;;;23.00;96973.00;;;;8327079;28;20233;-70
2022/07/18 20:36:43;;;;;;;4.95;1.83;;;;;22.70;96973.00;;;;8327461;28;20650;-70
2022/07/18 20:40:46;;;;;;;3.25;1.90;;;;;22.50;96976.00;;;;8326299;28;20233;-71
2022/07/18 20:44:50;;;;;;;6.57;2.40;;;;;22.30;96972.00;;;;8327065;28;20304;-72
2022/07/18 20:48:54;;;;;;;6.78;2.45;;;;;22.10;96977.00;;;;8325982;28;20328;-74
2022/07/18 20:52:57;;;;;;;4.38;2.10;;;;;22.00;96971.00;;;;8327015;28;20654;-73
2022/07/18 20:57:31;;;;;;;2.55;2.00;;;;;21.80;96973.00;;;;8326468;28;20244;-73
2022/07/18 21:01:35;;;;;;;5.05;2.00;;;;;21.70;96970.00;;;;8327139;28;20690;-73
2022/07/18 21:05:39;;;;;;;4.20;2.15;;;;;21.60;96971.00;;;;8326241;28;20241;-72
2022/07/18 21:09:43;;;;;;;2.38;2.03;;;;;21.60;96969.00;;;;8326232;28;20260;-71
2022/07/18 21:13:47;;;;;;;3.92;1.90;;;;;21.40;96968.00;;;;8331030;28;20689;-71
2022/07/18 21:18:25;;;;;;;4.20;2.13;;;;;21.30;96966.00;;;;8332260;28;20219;-71
2022/07/18 21:22:28;;;;;;;3.25;1.90;;;;;21.20;96977.00;;;;8332302;28;20225;-71
2022/07/18 21:26:32;;;;;;;4.63;2.17;;;;;21.20;96973.00;;;;8332873;28;20304;-72
2022/07/18 21:30:35;;;;;;;3.53;1.90;;;;;21.10;96979.00;;;;8332848;28;20233;-72
2022/07/18 21:34:40;;;;;;;2.50;2.10;;;;;21.00;96968.00;;;;8332593;28;20239;-72
2022/07/18 21:38:43;;;;;;;2.50;2.30;;;;;20.80;96975.00;;;;8331670;28;20221;-71
2022/07/18 21:42:47;;;;;;;3.90;2.00;;;;;20.70;96971.00;;;;8332638;28;20216;-70
2022/07/18 21:46:50;;;;;;;5.10;2.35;;;;;20.70;96970.00;;;;8332322;28;20247;-71
2022/07/18 21:50:55;;;;;;;10.85;2.30;;;;;20.60;96971.00;;;;8331987;28;20611;-70
2022/07/18 21:54:58;;;;;;;4.68;2.10;;;;;20.40;96975.00;;;;8331626;28;20642;-70
2022/07/18 21:59:01;;;;;;;6.15;2.50;;;;;20.30;96972.00;;;;8331021;28;20226;-71
2022/07/18 22:03:04;;;;;;;10.75;3.13;;;;;20.20;96972.00;;;;8332051;28;20248;-70